createdAt,value
2022-12-18T00:02:00.374Z,100.00
2022-12-18T00:06:03.394Z,100.00
2022-12-18T00:10:05.748Z,99.82
2022-12-18T00:14:07.463Z,99.58
2022-12-18T00:18:09.608Z,99.71
2022-12-18T00:22:11.290Z,99.36
2022-12-18T00:26:16.764Z,99.43
2022-12-18T00:30:18.670Z,99.03
2022-12-18T00:34:20.409Z,99.07
2022-12-18T00:38:22.187Z,99.11
2022-12-18T00:42:44.039Z,98.99
2022-12-18T00:46:46.615Z,99.28
2022-12-18T00:50:49.550Z,99.17
2022-12-18T00:54:51.220Z,98.82
2022-12-18T00:58:53.174Z,98.77
2022-12-18T01:02:55.030Z,98.65
2022-12-18T01:06:56.934Z,98.85
2022-12-18T01:10:58.668Z,98.74
2022-12-18T01:15:00.876Z,98.70
2022-12-18T01:19:02.894Z,98.43
2022-12-18T01:23:04.681Z,98.57
2022-12-18T01:27:06.409Z,98.53
2022-12-18T01:31:19.924Z,98.23
2022-12-18T01:35:22.049Z,98.36
2022-12-18T01:39:23.781Z,98.46
2022-12-18T01:43:45.601Z,98.41
2022-12-18T01:48:09.760Z,98.43
2022-12-18T01:52:12.260Z,98.41
2022-12-18T01:56:19.776Z,98.09
2022-12-18T02:00:23.347Z,98.49
2022-12-18T02:04:28.537Z,98.06
2022-12-18T02:08:47.213Z,98.20
2022-12-18T02:13:06.840Z,98.25
2022-12-18T02:17:23.119Z,97.79
2022-12-18T02:21:49.738Z,97.61
2022-12-18T02:26:00.981Z,98.12
2022-12-18T02:30:06.086Z,98.01
2022-12-18T02:34:09.496Z,98.09
2022-12-18T02:38:15.361Z,97.61
2022-12-18T02:42:20.332Z,97.74
2022-12-18T02:46:31.614Z,97.82
2022-12-18T02:50:55.046Z,97.81
2022-12-18T02:55:32.100Z,97.74
2022-12-18T02:59:48.645Z,97.72
2022-12-18T03:04:00.735Z,97.31
2022-12-18T03:08:14.301Z,97.46
2022-12-18T03:12:25.306Z,97.48
2022-12-18T03:16:32.323Z,97.18
2022-12-18T03:20:38.065Z,97.02
2022-12-18T03:24:40.951Z,97.19
2022-12-18T03:28:53.091Z,97.31
2022-12-18T03:33:25.101Z,97.10
2022-12-18T03:37:29.186Z,97.26
2022-12-18T03:41:38.320Z,97.18
2022-12-18T03:46:09.060Z,96.72
2022-12-18T03:50:20.514Z,96.61
2022-12-18T03:54:27.972Z,96.77
2022-12-18T03:58:39.481Z,96.78
2022-12-18T04:02:58.233Z,96.42
2022-12-18T04:07:08.887Z,96.36
2022-12-18T04:11:13.653Z,96.31
2022-12-18T04:15:15.989Z,96.69
2022-12-18T04:19:18.770Z,96.71
2022-12-18T04:23:24.811Z,96.29
2022-12-18T04:27:28.421Z,96.64
2022-12-18T04:31:30.555Z,96.60
2022-12-18T04:35:32.802Z,96.32
2022-12-18T04:39:34.906Z,96.47
2022-12-18T04:43:42.241Z,96.16
2022-12-18T04:47:44.162Z,96.32
2022-12-18T04:51:45.858Z,96.18
2022-12-18T04:55:47.600Z,96.53
2022-12-18T04:59:49.363Z,96.05
2022-12-18T05:03:53.193Z,96.14
2022-12-18T05:07:54.918Z,96.20
2022-12-18T05:11:56.640Z,96.18
2022-12-18T05:15:58.912Z,96.50
2022-12-18T05:20:00.670Z,96.56
2022-12-18T05:24:02.665Z,96.72
2022-12-18T05:28:04.376Z,96.41
2022-12-18T05:32:06.099Z,96.55
2022-12-18T05:36:09.752Z,96.36
2022-12-18T05:40:12.623Z,96.07
2022-12-18T05:44:14.371Z,96.18
2022-12-18T05:48:17.282Z,95.75
2022-12-18T05:52:18.996Z,95.37
2022-12-18T05:56:23.421Z,95.09
2022-12-18T06:00:25.122Z,95.20
2022-12-18T06:04:33.948Z,94.99
2022-12-18T06:08:35.649Z,94.89
2022-12-18T06:12:37.473Z,94.78
2022-12-18T06:16:39.283Z,94.66
2022-12-18T06:20:42.430Z,94.80
2022-12-18T06:24:44.203Z,94.78
2022-12-18T06:28:46.077Z,94.41
2022-12-18T06:32:53.192Z,94.33
2022-12-18T06:36:58.177Z,93.99
2022-12-18T06:40:59.859Z,93.94
2022-12-18T06:45:01.624Z,94.09
2022-12-18T06:49:03.361Z,93.91
2022-12-18T06:53:05.053Z,93.68
2022-12-18T06:57:08.828Z,93.72
2022-12-18T07:01:12.531Z,93.50
2022-12-18T07:05:14.368Z,93.53
2022-12-18T07:09:16.100Z,93.16
2022-12-18T07:13:18.295Z,93.20
2022-12-18T07:17:20.018Z,93.15
2022-12-18T07:21:23.235Z,93.01
2022-12-18T07:25:24.949Z,92.69
2022-12-18T07:29:26.724Z,92.43
2022-12-18T07:33:28.485Z,92.43
2022-12-18T07:37:30.937Z,92.41
2022-12-18T07:41:32.965Z,92.25
2022-12-18T07:45:44.126Z,92.20
2022-12-18T07:49:45.851Z,91.96
2022-12-18T07:53:49.337Z,91.56
2022-12-18T07:57:57.763Z,91.86
2022-12-18T08:02:05.770Z,91.53
2022-12-18T08:06:10.884Z,91.25
2022-12-18T08:10:12.636Z,91.40
2022-12-18T08:14:15.821Z,90.94
2022-12-18T08:18:17.507Z,90.83
2022-12-18T08:22:19.325Z,91.05
2022-12-18T08:26:22.284Z,90.59
2022-12-18T08:30:23.919Z,90.54
2022-12-18T08:34:25.964Z,90.56
2022-12-18T08:38:28.151Z,90.79
2022-12-18T08:42:48.429Z,90.54
2022-12-18T08:46:50.222Z,90.47
2022-12-18T08:50:59.552Z,90.39
2022-12-18T08:55:01.554Z,90.12
2022-12-18T08:59:03.697Z,90.06
2022-12-18T09:03:05.658Z,89.98
2022-12-18T09:07:07.473Z,89.89
2022-12-18T09:11:24.364Z,90.04
2022-12-18T09:15:26.170Z,89.98
2022-12-18T09:19:27.993Z,89.76
2022-12-18T09:23:29.749Z,89.33
2022-12-18T09:27:31.592Z,89.46
2022-12-18T09:31:34.289Z,89.28
2022-12-18T09:35:37.941Z,89.63
2022-12-18T09:39:41.030Z,89.02
2022-12-18T09:43:58.355Z,89.01
2022-12-18T09:48:02.835Z,89.25
2022-12-18T09:52:16.182Z,89.34
2022-12-18T09:56:20.571Z,89.14
2022-12-18T10:00:24.463Z,88.70
2022-12-18T10:04:31.696Z,89.04
2022-12-18T10:08:40.541Z,89.03
2022-12-18T10:12:46.117Z,89.02
2022-12-18T10:17:04.033Z,88.79
2022-12-18T10:21:13.414Z,88.87
2022-12-18T10:25:55.021Z,88.51
2022-12-18T10:29:57.089Z,88.38
2022-12-18T10:33:58.788Z,88.76
2022-12-18T10:38:12.743Z,88.35
2022-12-18T10:42:20.543Z,88.59
2022-12-18T10:46:22.427Z,88.43
2022-12-18T10:51:01.845Z,88.31
2022-12-18T10:54:59.395Z,88.32
2022-12-18T10:59:10.107Z,88.27
2022-12-18T11:03:32.616Z,88.51
2022-12-18T11:07:51.170Z,88.00
2022-12-18T11:11:55.920Z,88.08
2022-12-18T11:15:58.256Z,87.91
2022-12-18T11:20:02.738Z,87.91
2022-12-18T11:24:04.780Z,88.05
2022-12-18T11:28:28.025Z,88.38
2022-12-18T11:32:40.494Z,87.94
2022-12-18T11:36:49.498Z,88.11
2022-12-18T11:40:57.616Z,88.09
2022-12-18T11:45:25.798Z,87.74
2022-12-18T11:49:35.218Z,88.00
2022-12-18T11:53:39.270Z,87.99
2022-12-18T11:57:57.205Z,88.04
2022-12-18T12:02:19.803Z,87.87
2022-12-18T12:06:29.786Z,87.61
2022-12-18T12:10:55.969Z,87.49
2022-12-18T12:14:57.624Z,87.38
2022-12-18T12:19:14.281Z,87.82
2022-12-18T12:23:30.709Z,87.42
2022-12-18T12:27:59.227Z,87.36
2022-12-18T12:32:21.908Z,87.41
2022-12-18T12:36:54.785Z,87.09
2022-12-18T12:41:30.144Z,87.29
2022-12-18T12:45:41.494Z,87.40
2022-12-18T12:49:48.726Z,87.41
2022-12-18T12:53:54.059Z,87.20
2022-12-18T12:57:59.154Z,87.24
2022-12-18T13:02:38.052Z,87.51
2022-12-18T13:06:55.638Z,87.34
2022-12-18T13:11:18.593Z,87.45
2022-12-18T13:15:29.965Z,87.62
2022-12-18T13:19:32.662Z,87.45
2022-12-18T13:23:37.830Z,87.23
2022-12-18T13:27:45.587Z,87.34
2022-12-18T13:31:50.031Z,87.56
2022-12-18T13:35:51.768Z,87.80
2022-12-18T13:39:53.571Z,87.84
2022-12-18T13:44:14.766Z,87.67
2022-12-18T13:48:22.756Z,87.79
2022-12-18T13:52:28.102Z,87.81
2022-12-18T13:56:33.298Z,87.80
2022-12-18T14:00:35.699Z,87.54
2022-12-18T14:04:37.460Z,87.77
2022-12-18T14:08:42.339Z,87.83
2022-12-18T14:13:03.071Z,87.80
2022-12-18T14:17:11.571Z,87.65
2022-12-18T14:21:28.143Z,87.71
2022-12-18T14:25:31.622Z,87.71
2022-12-18T14:29:35.964Z,87.56
2022-12-18T14:33:39.574Z,87.56
2022-12-18T14:37:41.492Z,87.33
2022-12-18T14:41:43.225Z,87.58
2022-12-18T14:45:47.131Z,87.42
2022-12-18T14:49:49.632Z,87.52
2022-12-18T14:54:03.459Z,87.33
2022-12-18T14:58:05.174Z,87.30
2022-12-18T15:02:29.465Z,87.56
2022-12-18T15:06:42.768Z,87.16
2022-12-18T15:10:49.751Z,87.33
2022-12-18T15:14:51.420Z,86.95
2022-12-18T15:18:54.622Z,87.10
2022-12-18T15:22:56.413Z,87.03
2022-12-18T15:26:58.562Z,87.07
2022-12-18T15:31:03.420Z,87.17
2022-12-18T15:35:16.197Z,86.92
2022-12-18T15:39:17.899Z,87.15
2022-12-18T15:43:48.865Z,86.91
2022-12-18T15:47:50.638Z,86.92
2022-12-18T15:51:59.130Z,86.72
2022-12-18T15:56:19.543Z,86.53
2022-12-18T16:00:22.028Z,86.81
2022-12-18T16:04:24.645Z,86.71
2022-12-18T16:08:26.429Z,86.37
2022-12-18T16:12:28.194Z,86.19
2022-12-18T16:16:29.981Z,86.24
2022-12-18T16:20:33.043Z,86.46
2022-12-18T16:24:37.245Z,85.94
2022-12-18T16:28:42.499Z,85.91
2022-12-18T16:32:47.105Z,85.85
2022-12-18T16:36:50.123Z,85.89
2022-12-18T16:41:10.201Z,85.75
2022-12-18T16:45:16.106Z,85.52
2022-12-18T16:49:19.435Z,85.76
2022-12-18T16:53:21.159Z,85.56
2022-12-18T16:57:25.357Z,85.34
2022-12-18T17:01:30.302Z,84.85
2022-12-18T17:05:33.939Z,84.85
2022-12-18T17:09:36.551Z,84.61
2022-12-18T17:13:39.006Z,85.01
2022-12-18T17:17:40.990Z,84.97
2022-12-18T17:21:44.405Z,84.86
2022-12-18T17:25:46.143Z,84.75
2022-12-18T17:29:48.974Z,84.92
2022-12-18T17:33:51.733Z,84.94
2022-12-18T17:37:53.454Z,84.69
2022-12-18T17:41:55.197Z,84.76
2022-12-18T17:45:58.112Z,85.02
2022-12-18T17:50:07.911Z,84.54
2022-12-18T17:54:10.597Z,84.72
2022-12-18T17:58:12.374Z,84.71
2022-12-18T18:02:14.201Z,84.38
2022-12-18T18:06:16.094Z,84.58
2022-12-18T18:10:17.902Z,84.62
2022-12-18T18:14:20.918Z,84.45
2022-12-18T18:18:22.627Z,84.65
2022-12-18T18:22:26.103Z,84.77
2022-12-18T18:26:31.384Z,84.38
2022-12-18T18:30:33.078Z,84.43
2022-12-18T18:34:34.998Z,84.21
2022-12-18T18:38:36.674Z,84.17
2022-12-18T18:42:38.430Z,84.65
2022-12-18T18:46:40.125Z,84.75
2022-12-18T18:50:44.142Z,84.58
2022-12-18T18:55:11.636Z,85.06
2022-12-18T18:59:09.690Z,85.49
2022-12-18T19:03:12.469Z,85.39
2022-12-18T19:07:25.411Z,85.78
2022-12-18T19:11:51.306Z,86.15
2022-12-18T19:15:56.080Z,86.79
2022-12-18T19:19:58.058Z,86.89
2022-12-18T19:24:00.171Z,87.07
2022-12-18T19:28:01.954Z,87.23
2022-12-18T19:32:06.625Z,87.91
2022-12-18T19:36:25.325Z,88.14
2022-12-18T19:40:27.352Z,88.18
2022-12-18T19:44:30.400Z,88.84
2022-12-18T19:48:35.641Z,89.26
2022-12-18T19:52:37.392Z,89.26
2022-12-18T19:56:39.093Z,89.71
2022-12-18T20:00:40.785Z,90.08
2022-12-18T20:04:42.514Z,90.11
2022-12-18T20:08:44.471Z,90.40
2022-12-18T20:12:46.272Z,90.66
2022-12-18T20:16:48.499Z,91.07
2022-12-18T20:20:50.823Z,90.84
2022-12-18T20:24:53.776Z,91.48
2022-12-18T20:28:56.651Z,91.54
2022-12-18T20:32:58.385Z,91.91
2022-12-18T20:37:00.099Z,92.03
2022-12-18T20:41:04.925Z,92.34
2022-12-18T20:45:07.338Z,92.80
2022-12-18T20:49:09.752Z,92.98
2022-12-18T20:53:11.470Z,93.14
2022-12-18T20:57:13.252Z,93.68
2022-12-18T21:01:18.407Z,93.81
2022-12-18T21:05:20.361Z,94.01
2022-12-18T21:09:22.297Z,94.24
2022-12-18T21:13:23.971Z,94.64
2022-12-18T21:17:26.827Z,94.78
2022-12-18T21:21:30.085Z,95.14
2022-12-18T21:25:39.414Z,95.14
2022-12-18T21:29:41.224Z,95.67
2022-12-18T21:33:43.024Z,95.70
2022-12-18T21:37:44.721Z,95.84
2022-12-18T21:42:05.413Z,96.33
2022-12-18T21:46:07.180Z,96.59
2022-12-18T21:50:09.268Z,96.53
2022-12-18T21:54:11.568Z,96.83
2022-12-18T21:58:13.294Z,97.48
2022-12-18T22:02:18.623Z,97.42
2022-12-18T22:06:20.591Z,97.57
2022-12-18T22:10:22.320Z,97.84
2022-12-18T22:14:24.389Z,97.98
2022-12-18T22:18:26.094Z,98.31
2022-12-18T22:22:27.867Z,98.41
2022-12-18T22:26:36.414Z,98.67
2022-12-18T22:30:41.210Z,98.77
2022-12-18T22:34:43.268Z,98.93
2022-12-18T22:38:47.146Z,98.83
2022-12-18T22:42:48.881Z,99.03
2022-12-18T22:47:05.542Z,99.18
2022-12-18T22:51:16.206Z,99.31
2022-12-18T22:55:18.289Z,99.42
2022-12-18T22:59:23.331Z,99.31
2022-12-18T23:03:25.037Z,99.46
2022-12-18T23:07:26.833Z,99.99
2022-12-18T23:11:28.549Z,100.00
2022-12-18T23:15:30.372Z,99.92
2022-12-18T23:19:32.081Z,99.97
2022-12-18T23:23:35.229Z,100.00
2022-12-18T23:27:36.996Z,100.00
2022-12-18T23:31:39.581Z,100.00
2022-12-18T23:35:41.393Z,100.00
2022-12-18T23:39:43.102Z,100.00
2022-12-18T23:43:45.467Z,100.00
2022-12-18T23:47:51.038Z,100.00
2022-12-18T23:51:54.384Z,100.00
2022-12-18T23:55:56.204Z,100.00
2022-12-18T23:59:58.895Z,100.00
